createdAt,value
2024-01-09T00:01:22.131Z,9.20
2024-01-09T00:03:48.969Z,8.20
2024-01-09T00:06:16.273Z,8.50
2024-01-09T00:08:44.267Z,8.10
2024-01-09T00:11:14.552Z,8.00
2024-01-09T00:13:42.811Z,8.80
2024-01-09T00:16:09.820Z,10.30
2024-01-09T00:18:36.810Z,9.90
2024-01-09T00:21:04.095Z,9.50
2024-01-09T00:23:31.027Z,9.40
2024-01-09T00:25:58.058Z,9.50
2024-01-09T00:28:24.824Z,10.10
2024-01-09T00:30:51.846Z,9.30
2024-01-09T00:33:18.912Z,10.70
2024-01-09T00:35:46.058Z,10.60
2024-01-09T00:38:12.907Z,9.90
2024-01-09T00:40:40.518Z,11.10
2024-01-09T00:43:07.189Z,10.70
2024-01-09T00:45:36.318Z,10.60
2024-01-09T00:48:05.708Z,10.90
2024-01-09T00:50:32.516Z,11.30
2024-01-09T00:52:59.390Z,12.30
2024-01-09T00:55:26.228Z,11.90
2024-01-09T00:57:52.974Z,12.20
2024-01-09T01:00:19.714Z,12.00
2024-01-09T01:02:46.610Z,11.90
2024-01-09T01:05:16.063Z,12.50
2024-01-09T01:07:43.510Z,11.50
2024-01-09T01:10:17.398Z,11.90
2024-01-09T01:12:47.456Z,10.30
2024-01-09T01:15:14.635Z,11.20
2024-01-09T01:17:41.658Z,11.10
2024-01-09T01:20:09.714Z,11.00
2024-01-09T01:22:36.777Z,10.40
2024-01-09T01:25:04.260Z,9.40
2024-01-09T01:27:31.240Z,9.80
2024-01-09T01:29:58.261Z,9.50
2024-01-09T01:32:25.084Z,9.50
2024-01-09T01:34:51.864Z,9.30
2024-01-09T01:37:18.515Z,9.80
2024-01-09T01:39:45.153Z,9.30
2024-01-09T01:42:11.839Z,9.40
2024-01-09T01:44:38.700Z,8.70
2024-01-09T01:47:06.260Z,8.70
2024-01-09T01:49:33.761Z,9.30
2024-01-09T01:52:01.260Z,9.40
2024-01-09T01:54:29.394Z,8.20
2024-01-09T01:56:58.433Z,8.50
2024-01-09T01:59:25.360Z,8.60
2024-01-09T02:01:52.651Z,8.30
2024-01-09T02:04:20.798Z,7.70
2024-01-09T02:06:47.952Z,8.20
2024-01-09T02:09:15.935Z,7.10
2024-01-09T02:11:43.761Z,7.70
2024-01-09T02:14:11.268Z,7.30
2024-01-09T02:16:38.526Z,7.00
2024-01-09T02:19:05.359Z,6.30
2024-01-09T02:21:32.426Z,6.70
2024-01-09T02:23:59.453Z,6.90
2024-01-09T02:26:53.983Z,6.80
2024-01-09T02:29:25.310Z,6.20
2024-01-09T02:31:53.282Z,7.30
2024-01-09T02:34:22.133Z,5.90
2024-01-09T02:36:49.123Z,5.90
2024-01-09T02:39:15.757Z,7.00
2024-01-09T02:41:42.592Z,7.10
2024-01-09T02:44:09.386Z,6.10
2024-01-09T02:46:36.304Z,6.10
2024-01-09T02:49:03.496Z,6.50
2024-01-09T02:51:30.520Z,6.60
2024-01-09T02:53:57.285Z,6.50
2024-01-09T02:56:24.522Z,6.60
2024-01-09T02:58:51.323Z,5.90
2024-01-09T03:01:18.774Z,5.80
2024-01-09T03:03:45.802Z,5.70
2024-01-09T03:06:13.145Z,5.70
2024-01-09T03:08:40.175Z,6.80
2024-01-09T03:11:06.955Z,6.80
2024-01-09T03:13:34.014Z,5.70
2024-01-09T03:16:00.671Z,5.80
2024-01-09T03:18:27.620Z,5.60
2024-01-09T03:20:54.751Z,5.30
2024-01-09T03:23:21.579Z,5.50
2024-01-09T03:25:48.361Z,5.20
2024-01-09T03:28:15.062Z,5.10
2024-01-09T03:30:41.743Z,6.00
2024-01-09T03:33:08.676Z,5.50
2024-01-09T03:35:35.559Z,5.00
2024-01-09T03:38:02.426Z,5.40
2024-01-09T03:40:29.397Z,5.20
2024-01-09T03:42:56.050Z,5.50
2024-01-09T03:45:24.476Z,5.40
2024-01-09T03:47:51.359Z,5.10
2024-01-09T03:50:18.214Z,5.30
2024-01-09T03:52:45.303Z,5.20
2024-01-09T03:55:12.561Z,5.40
2024-01-09T03:57:39.346Z,5.10
2024-01-09T04:00:07.207Z,4.70
2024-01-09T04:02:34.115Z,5.00
2024-01-09T04:05:01.867Z,4.50
2024-01-09T04:07:28.944Z,5.00
2024-01-09T04:09:58.115Z,5.00
2024-01-09T04:12:24.792Z,4.90
2024-01-09T04:14:51.788Z,4.30
2024-01-09T04:17:18.570Z,4.50
2024-01-09T04:19:45.435Z,4.90
2024-01-09T04:22:12.172Z,4.80
2024-01-09T04:24:39.011Z,4.60
2024-01-09T04:27:05.764Z,4.20
2024-01-09T04:29:32.656Z,4.20
2024-01-09T04:31:59.517Z,4.80
2024-01-09T04:34:26.746Z,4.90
2024-01-09T04:36:53.846Z,4.00
2024-01-09T04:39:20.696Z,4.10
2024-01-09T04:41:47.620Z,4.20
2024-01-09T04:44:14.644Z,4.30
2024-01-09T04:46:41.591Z,4.10
2024-01-09T04:49:08.537Z,4.20
2024-01-09T04:51:35.329Z,4.10
2024-01-09T04:54:02.022Z,4.40
2024-01-09T04:56:28.807Z,4.10
2024-01-09T04:58:55.810Z,4.40
2024-01-09T05:01:23.313Z,4.30
2024-01-09T05:03:50.728Z,4.40
2024-01-09T05:06:18.693Z,4.10
2024-01-09T05:08:46.796Z,4.30
2024-01-09T05:11:17.869Z,4.10
2024-01-09T05:13:47.453Z,4.40
2024-01-09T05:16:14.483Z,4.10
2024-01-09T05:18:41.423Z,4.50
2024-01-09T05:21:09.110Z,4.50
2024-01-09T05:23:35.988Z,3.90
2024-01-09T05:26:04.246Z,4.10
2024-01-09T05:28:31.255Z,4.10
2024-01-09T05:30:58.004Z,3.70
2024-01-09T05:33:24.918Z,4.70
2024-01-09T05:35:51.926Z,4.50
2024-01-09T05:38:19.543Z,4.50
2024-01-09T05:40:47.395Z,4.10
2024-01-09T05:43:14.435Z,4.20
2024-01-09T05:45:41.205Z,4.20
2024-01-09T05:48:08.370Z,4.30
2024-01-09T05:50:35.555Z,4.90
2024-01-09T05:53:02.842Z,4.60
2024-01-09T05:55:29.701Z,5.20
2024-01-09T05:57:56.842Z,5.20
2024-01-09T06:00:23.520Z,5.80
2024-01-09T06:02:50.319Z,5.10
2024-01-09T06:05:17.407Z,4.70
2024-01-09T06:07:44.423Z,4.90
2024-01-09T06:10:11.141Z,4.80
2024-01-09T06:12:38.126Z,5.10
2024-01-09T06:15:05.367Z,5.50
2024-01-09T06:17:32.708Z,4.70
2024-01-09T06:20:01.605Z,5.50
2024-01-09T06:22:28.480Z,6.20
2024-01-09T06:24:55.331Z,5.80
2024-01-09T06:27:22.217Z,5.40
2024-01-09T06:29:49.000Z,6.80
2024-01-09T06:32:15.776Z,6.60
2024-01-09T06:34:42.452Z,7.60
2024-01-09T06:37:09.267Z,6.80
2024-01-09T06:39:37.420Z,7.10
2024-01-09T06:42:04.819Z,6.50
2024-01-09T06:44:31.849Z,6.20
2024-01-09T06:46:58.643Z,7.10
2024-01-09T06:49:25.704Z,6.70
2024-01-09T06:51:54.379Z,7.20
2024-01-09T06:54:21.293Z,7.10
2024-01-09T06:56:48.029Z,7.50
2024-01-09T06:59:15.026Z,7.50
2024-01-09T07:01:42.019Z,7.20
2024-01-09T07:04:09.284Z,7.30
2024-01-09T07:06:36.181Z,6.70
2024-01-09T07:09:04.014Z,9.10
2024-01-09T07:11:31.240Z,8.70
2024-01-09T07:13:58.111Z,7.60
2024-01-09T07:16:25.069Z,10.50
2024-01-09T07:18:52.477Z,9.40
2024-01-09T07:21:19.795Z,10.00
2024-01-09T07:23:47.605Z,9.80
2024-01-09T07:26:14.826Z,9.30
2024-01-09T07:28:42.407Z,9.20
2024-01-09T07:31:09.925Z,8.90
2024-01-09T07:33:37.207Z,8.00
2024-01-09T07:36:04.630Z,8.50
2024-01-09T07:38:31.332Z,7.70
2024-01-09T07:41:00.689Z,8.50
2024-01-09T07:43:28.903Z,6.80
2024-01-09T07:45:55.692Z,8.00
2024-01-09T07:48:23.210Z,7.80
2024-01-09T07:50:50.548Z,7.80
2024-01-09T07:53:17.391Z,7.00
2024-01-09T07:55:44.486Z,7.30
2024-01-09T07:58:11.234Z,7.10
2024-01-09T08:00:38.746Z,6.70
2024-01-09T08:03:06.737Z,6.60
2024-01-09T08:05:34.126Z,5.90
2024-01-09T08:08:01.411Z,5.60
2024-01-09T08:10:28.684Z,5.70
2024-01-09T08:12:55.418Z,5.60
2024-01-09T08:15:22.110Z,4.90
2024-01-09T08:17:49.120Z,5.50
2024-01-09T08:20:16.527Z,5.10
2024-01-09T08:22:43.503Z,5.30
2024-01-09T08:25:10.405Z,4.70
2024-01-09T08:27:37.946Z,5.50
2024-01-09T08:30:06.297Z,5.90
2024-01-09T08:32:33.691Z,4.90
2024-01-09T08:35:01.329Z,4.80
2024-01-09T08:37:28.349Z,3.80
2024-01-09T08:39:55.055Z,4.60
2024-01-09T08:42:21.763Z,4.70
2024-01-09T08:44:48.818Z,5.00
2024-01-09T08:47:17.086Z,5.70
2024-01-09T08:49:44.569Z,5.60
2024-01-09T08:52:11.434Z,7.20
2024-01-09T08:54:38.068Z,6.40
2024-01-09T08:57:05.872Z,6.80
2024-01-09T08:59:32.680Z,7.30
2024-01-09T09:01:59.491Z,8.00
2024-01-09T09:04:26.167Z,8.50
2024-01-09T09:06:53.112Z,9.20
2024-01-09T09:09:19.942Z,8.10
2024-01-09T09:11:46.620Z,9.30
2024-01-09T09:14:14.024Z,9.60
2024-01-09T09:16:43.925Z,9.40
2024-01-09T09:19:11.354Z,11.00
2024-01-09T09:21:38.638Z,10.10
2024-01-09T09:24:06.206Z,8.80
2024-01-09T09:26:33.642Z,8.00
2024-01-09T09:29:07.786Z,7.70
2024-01-09T09:31:42.105Z,6.90
2024-01-09T09:34:09.478Z,6.50
2024-01-09T09:36:36.572Z,6.70
2024-01-09T09:39:03.800Z,5.70
2024-01-09T09:41:33.297Z,5.10
2024-01-09T09:44:03.980Z,5.20
2024-01-09T09:46:33.931Z,4.00
2024-01-09T09:49:02.114Z,5.00
2024-01-09T09:51:29.798Z,5.00
2024-01-09T09:53:58.313Z,5.00
2024-01-09T09:56:26.183Z,5.50
2024-01-09T09:58:53.074Z,5.90
2024-01-09T10:01:23.104Z,5.40
2024-01-09T10:03:57.271Z,4.80
2024-01-09T10:06:27.736Z,4.50
2024-01-09T10:08:57.227Z,4.00
2024-01-09T10:11:24.040Z,4.30
2024-01-09T10:13:52.428Z,3.50
2024-01-09T10:16:19.749Z,3.50
2024-01-09T10:18:46.583Z,3.60
2024-01-09T10:21:13.766Z,3.10
2024-01-09T10:23:41.445Z,2.80
2024-01-09T10:26:14.327Z,2.80
2024-01-09T10:28:41.925Z,3.10
2024-01-09T10:31:09.454Z,2.60
2024-01-09T10:33:42.787Z,2.60
2024-01-09T10:36:10.284Z,2.40
2024-01-09T10:38:37.204Z,2.30
2024-01-09T10:41:18.303Z,2.70
2024-01-09T10:43:45.478Z,2.70
2024-01-09T10:46:12.353Z,2.50
2024-01-09T10:48:41.993Z,2.70
2024-01-09T10:51:12.491Z,2.60
2024-01-09T10:53:41.154Z,2.60
2024-01-09T10:56:10.155Z,2.40
2024-01-09T10:58:38.618Z,2.40
2024-01-09T11:01:05.658Z,2.10
2024-01-09T11:03:32.616Z,2.40
2024-01-09T11:06:00.084Z,2.50
2024-01-09T11:08:28.382Z,2.10
2024-01-09T11:10:56.460Z,2.60
2024-01-09T11:13:24.905Z,2.40
2024-01-09T11:15:54.815Z,2.30
2024-01-09T11:18:23.033Z,2.10
2024-01-09T11:21:03.684Z,2.10
2024-01-09T11:23:42.885Z,2.20
2024-01-09T11:26:12.939Z,2.30
2024-01-09T11:28:43.753Z,2.10
2024-01-09T11:33:42.928Z,2.30
2024-01-09T11:36:12.243Z,2.10
2024-01-09T11:38:39.880Z,2.20
2024-01-09T11:41:09.837Z,2.20
2024-01-09T11:43:59.188Z,2.20
2024-01-09T11:46:27.675Z,2.20
2024-01-09T11:48:55.848Z,2.20
2024-01-09T11:51:23.778Z,2.40
2024-01-09T11:53:51.317Z,2.70
2024-01-09T11:56:20.115Z,2.10
2024-01-09T11:58:50.905Z,2.40
2024-01-09T12:01:20.127Z,2.30
2024-01-09T12:03:57.937Z,2.30
2024-01-09T12:06:31.171Z,2.40
2024-01-09T12:08:58.744Z,2.20
2024-01-09T12:11:25.934Z,2.00
2024-01-09T12:14:03.456Z,1.90
2024-01-09T12:16:31.839Z,2.30
2024-01-09T12:19:00.045Z,2.30
2024-01-09T12:21:29.532Z,2.50
2024-01-09T12:24:18.665Z,2.10
2024-01-09T12:26:47.241Z,2.50
2024-01-09T12:29:14.137Z,2.80
2024-01-09T12:31:41.531Z,2.70
2024-01-09T12:34:08.804Z,2.90
2024-01-09T12:36:35.870Z,3.10
2024-01-09T12:39:03.978Z,3.00
2024-01-09T12:41:30.885Z,2.80
2024-01-09T12:44:09.346Z,2.70
2024-01-09T12:46:36.443Z,3.20
2024-01-09T12:49:03.758Z,2.80
2024-01-09T12:51:32.845Z,3.10
2024-01-09T12:53:59.660Z,3.10
2024-01-09T12:56:26.995Z,3.00
2024-01-09T12:58:54.478Z,2.80
2024-01-09T13:01:21.398Z,2.60
2024-01-09T13:03:51.335Z,2.90
2024-01-09T13:06:18.312Z,3.20
2024-01-09T13:08:45.091Z,2.30
2024-01-09T13:11:11.918Z,3.10
2024-01-09T13:13:43.107Z,2.80
2024-01-09T13:16:10.395Z,3.30
2024-01-09T13:18:37.472Z,3.20
2024-01-09T13:21:04.960Z,2.70
2024-01-09T13:26:03.470Z,3.40
2024-01-09T13:28:30.324Z,3.50
2024-01-09T13:30:59.079Z,3.60
2024-01-09T13:33:27.386Z,3.20
2024-01-09T13:35:55.869Z,4.20
2024-01-09T13:38:22.609Z,4.30
2024-01-09T13:40:49.865Z,4.50
2024-01-09T13:43:17.464Z,5.50
2024-01-09T13:45:45.014Z,4.90
2024-01-09T13:48:13.397Z,5.70
2024-01-09T13:53:10.055Z,6.00
2024-01-09T13:55:36.896Z,5.00
2024-01-09T13:58:04.900Z,4.60
2024-01-09T14:00:33.450Z,5.30
2024-01-09T14:03:00.934Z,5.70
2024-01-09T14:05:29.082Z,5.20
2024-01-09T14:07:56.311Z,5.60
2024-01-09T14:10:23.477Z,6.00
2024-01-09T14:12:50.822Z,6.20
2024-01-09T14:15:18.826Z,6.60
2024-01-09T14:17:45.677Z,6.30
2024-01-09T14:20:13.111Z,6.40
2024-01-09T14:22:40.088Z,5.60
2024-01-09T14:25:08.503Z,6.00
2024-01-09T14:27:35.421Z,5.10
2024-01-09T14:30:03.925Z,5.60
2024-01-09T14:32:31.292Z,5.50
2024-01-09T14:34:58.546Z,4.80
2024-01-09T14:37:25.736Z,5.10
2024-01-09T14:39:53.274Z,4.80
2024-01-09T14:42:20.734Z,5.00
2024-01-09T14:44:47.377Z,4.80
2024-01-09T14:47:15.392Z,5.10
2024-01-09T14:49:42.730Z,5.10
2024-01-09T14:52:09.832Z,5.40
2024-01-09T14:54:38.075Z,5.60
2024-01-09T14:57:05.413Z,6.00
2024-01-09T14:59:32.824Z,5.90
2024-01-09T15:01:59.673Z,6.00
2024-01-09T15:04:26.696Z,6.80
2024-01-09T15:06:57.695Z,6.40
2024-01-09T15:09:28.385Z,6.70
2024-01-09T15:11:55.363Z,7.30
2024-01-09T15:14:22.530Z,7.50
2024-01-09T15:16:49.512Z,7.10
2024-01-09T15:19:16.264Z,6.10
2024-01-09T15:21:43.274Z,6.50
2024-01-09T15:24:10.054Z,4.80
2024-01-09T15:26:41.099Z,4.60
2024-01-09T15:29:09.244Z,4.00
2024-01-09T15:31:40.061Z,3.80
2024-01-09T15:34:07.464Z,3.60
2024-01-09T15:36:34.534Z,3.20
2024-01-09T15:39:01.195Z,2.80
2024-01-09T15:41:28.520Z,2.80
2024-01-09T15:43:56.234Z,3.40
2024-01-09T15:46:24.643Z,2.80
2024-01-09T15:48:52.923Z,2.70
2024-01-09T15:51:21.209Z,2.90
2024-01-09T15:53:51.952Z,3.10
2024-01-09T15:56:22.985Z,3.30
2024-01-09T15:58:50.627Z,3.00
2024-01-09T16:01:22.197Z,2.50
2024-01-09T16:03:50.591Z,2.90
2024-01-09T16:06:22.422Z,2.80
2024-01-09T16:08:52.235Z,2.60
2024-01-09T16:11:20.229Z,2.60
2024-01-09T16:13:47.776Z,2.80
2024-01-09T16:16:19.435Z,2.80
2024-01-09T16:18:46.738Z,3.70
2024-01-09T16:21:14.398Z,3.20
2024-01-09T16:23:42.086Z,4.10
2024-01-09T16:26:09.731Z,4.10
2024-01-09T16:28:37.405Z,4.90
2024-01-09T16:31:07.287Z,4.80
2024-01-09T16:33:34.866Z,4.60
2024-01-09T16:36:04.709Z,4.60
2024-01-09T16:38:31.664Z,4.40
2024-01-09T16:40:58.442Z,4.20
2024-01-09T16:43:25.362Z,3.90
2024-01-09T16:45:53.120Z,4.50
2024-01-09T16:50:49.985Z,4.40
2024-01-09T16:53:17.161Z,4.50
2024-01-09T16:55:44.490Z,4.50
2024-01-09T16:58:11.402Z,4.00
2024-01-09T17:00:38.465Z,4.60
2024-01-09T17:03:05.895Z,4.90
2024-01-09T17:05:33.300Z,5.40
2024-01-09T17:08:00.393Z,5.40
2024-01-09T17:10:28.448Z,5.80
2024-01-09T17:12:55.437Z,6.00
2024-01-09T17:15:26.090Z,5.10
2024-01-09T17:17:53.660Z,5.10
2024-01-09T17:20:20.546Z,5.90
2024-01-09T17:22:47.590Z,6.20
2024-01-09T17:25:15.765Z,6.70
2024-01-09T17:27:42.589Z,8.30
2024-01-09T17:30:11.294Z,7.20
2024-01-09T17:32:39.056Z,7.20
2024-01-09T17:35:07.518Z,7.50
2024-01-09T17:37:34.438Z,7.40
2024-01-09T17:40:01.822Z,7.40
2024-01-09T17:42:33.087Z,9.10
2024-01-09T17:45:00.763Z,10.40
2024-01-09T17:47:28.582Z,9.30
2024-01-09T17:49:56.039Z,9.10
2024-01-09T17:52:22.777Z,9.10
2024-01-09T17:54:49.774Z,8.70
2024-01-09T17:57:16.428Z,8.70
2024-01-09T17:59:47.467Z,9.10
2024-01-09T18:02:17.538Z,8.90
2024-01-09T18:04:44.755Z,9.40
2024-01-09T18:07:11.782Z,9.30
2024-01-09T18:09:38.439Z,10.10
2024-01-09T18:12:06.377Z,10.40
2024-01-09T18:14:33.252Z,10.80
2024-01-09T18:17:00.298Z,10.70
2024-01-09T18:19:27.414Z,10.80
2024-01-09T18:21:56.621Z,10.80
2024-01-09T18:24:23.852Z,10.10
2024-01-09T18:26:54.299Z,11.90
2024-01-09T18:29:23.622Z,11.50
2024-01-09T18:31:53.517Z,12.40
2024-01-09T18:34:21.453Z,13.00
2024-01-09T18:36:52.061Z,12.10
2024-01-09T18:39:21.698Z,11.70
2024-01-09T18:41:49.027Z,13.00
2024-01-09T18:44:16.157Z,12.50
2024-01-09T18:46:43.228Z,11.90
2024-01-09T18:49:10.074Z,12.70
2024-01-09T18:51:36.852Z,12.10
2024-01-09T18:54:04.631Z,11.70
2024-01-09T18:56:31.464Z,12.60
2024-01-09T18:58:58.441Z,11.90
2024-01-09T19:01:25.272Z,12.30
2024-01-09T19:03:52.172Z,11.50
2024-01-09T19:06:19.697Z,12.10
2024-01-09T19:08:46.957Z,11.30
2024-01-09T19:11:17.922Z,11.60
2024-01-09T19:13:46.006Z,10.60
2024-01-09T19:16:12.953Z,11.30
2024-01-09T19:18:39.928Z,11.30
2024-01-09T19:21:06.860Z,11.80
2024-01-09T19:23:33.965Z,10.40
2024-01-09T19:26:00.952Z,10.20
2024-01-09T19:28:27.863Z,10.90
2024-01-09T19:30:55.004Z,12.40
2024-01-09T19:33:21.990Z,11.30
2024-01-09T19:35:48.817Z,12.20
2024-01-09T19:38:15.625Z,11.00
2024-01-09T19:40:42.558Z,11.20
2024-01-09T19:43:09.459Z,11.10
2024-01-09T19:45:36.285Z,11.40
2024-01-09T19:48:04.641Z,11.90
2024-01-09T19:50:32.819Z,13.50
2024-01-09T19:52:59.594Z,14.10
2024-01-09T19:55:26.579Z,14.70
2024-01-09T19:57:53.648Z,13.20
2024-01-09T20:00:24.708Z,14.80
2024-01-09T20:02:51.878Z,15.00
2024-01-09T20:05:19.077Z,15.40
2024-01-09T20:07:46.698Z,16.70
2024-01-09T20:10:13.590Z,15.40
2024-01-09T20:12:45.912Z,16.70
2024-01-09T20:15:16.151Z,18.40
2024-01-09T20:17:43.873Z,17.70
2024-01-09T20:20:20.577Z,17.30
2024-01-09T20:22:48.213Z,17.50
2024-01-09T20:25:15.453Z,18.10
2024-01-09T20:27:42.483Z,17.30
2024-01-09T20:30:10.483Z,18.40
2024-01-09T20:32:39.742Z,19.40
2024-01-09T20:35:10.242Z,18.00
2024-01-09T20:37:37.554Z,15.80
2024-01-09T20:40:05.734Z,16.30
2024-01-09T20:42:33.259Z,15.80
2024-01-09T20:45:00.835Z,15.50
2024-01-09T20:47:30.921Z,16.70
2024-01-09T20:49:59.159Z,16.50
2024-01-09T20:52:26.466Z,17.50
2024-01-09T20:54:53.431Z,16.40
2024-01-09T20:57:20.495Z,17.10
2024-01-09T20:59:47.579Z,16.50
2024-01-09T21:02:16.455Z,16.20
2024-01-09T21:04:44.002Z,17.30
2024-01-09T21:07:10.824Z,17.00
2024-01-09T21:09:40.171Z,17.40
2024-01-09T21:12:07.743Z,17.60
2024-01-09T21:14:34.649Z,17.20
2024-01-09T21:17:01.378Z,17.10
2024-01-09T21:19:30.028Z,16.10
2024-01-09T21:21:56.945Z,15.30
2024-01-09T21:24:23.684Z,16.00
2024-01-09T21:26:51.688Z,14.30
2024-01-09T21:29:18.797Z,14.60
2024-01-09T21:31:46.715Z,13.20
2024-01-09T21:34:15.421Z,13.90
2024-01-09T21:36:42.283Z,14.30
2024-01-09T21:39:09.306Z,13.60
2024-01-09T21:41:36.493Z,14.30
2024-01-09T21:44:04.836Z,13.80
2024-01-09T21:46:31.687Z,13.30
2024-01-09T21:48:58.825Z,13.50
2024-01-09T21:51:26.244Z,14.50
2024-01-09T21:53:52.859Z,12.70
2024-01-09T21:56:19.655Z,13.50
2024-01-09T21:58:46.368Z,12.70
2024-01-09T22:01:13.505Z,13.10
2024-01-09T22:03:40.367Z,12.60
2024-01-09T22:06:07.902Z,12.60
2024-01-09T22:08:34.983Z,12.80
2024-01-09T22:11:04.264Z,13.40
2024-01-09T22:13:31.804Z,13.10
2024-01-09T22:15:58.684Z,12.80
2024-01-09T22:18:25.522Z,12.00
2024-01-09T22:20:52.660Z,14.60
2024-01-09T22:23:19.533Z,13.80
2024-01-09T22:25:46.440Z,13.80
2024-01-09T22:28:13.305Z,15.00
2024-01-09T22:30:40.853Z,13.20
2024-01-09T22:33:08.005Z,13.40
2024-01-09T22:35:35.235Z,13.00
2024-01-09T22:38:01.977Z,13.50
2024-01-09T22:40:28.650Z,13.70
2024-01-09T22:42:55.443Z,14.10
2024-01-09T22:45:22.291Z,12.70
2024-01-09T22:47:49.177Z,13.20
2024-01-09T22:50:16.186Z,12.50
2024-01-09T22:52:42.934Z,13.10
2024-01-09T22:55:11.136Z,13.60
2024-01-09T22:57:38.101Z,12.70
2024-01-09T23:00:16.704Z,13.70
2024-01-09T23:02:43.567Z,13.30
2024-01-09T23:05:15.600Z,13.40
2024-01-09T23:07:44.955Z,13.30
2024-01-09T23:10:12.831Z,13.30
2024-01-09T23:12:40.149Z,13.40
2024-01-09T23:15:08.613Z,13.40
2024-01-09T23:17:36.417Z,12.90
2024-01-09T23:20:10.299Z,12.80
2024-01-09T23:22:38.673Z,12.10
2024-01-09T23:25:06.409Z,12.90
2024-01-09T23:27:33.132Z,11.60
2024-01-09T23:29:59.924Z,12.30
2024-01-09T23:32:26.732Z,12.50
2024-01-09T23:35:01.176Z,11.40
2024-01-09T23:37:31.469Z,11.40
2024-01-09T23:39:58.254Z,11.00
2024-01-09T23:42:25.746Z,12.00
2024-01-09T23:44:52.860Z,11.70
2024-01-09T23:47:19.610Z,11.20
2024-01-09T23:49:46.359Z,9.80
2024-01-09T23:52:13.737Z,10.30
2024-01-09T23:54:40.780Z,10.10
2024-01-09T23:57:09.497Z,9.40
2024-01-09T23:59:37.151Z,9.00
